Time;durP1;ratioP1;P1;durP2;ratioP2;P2;SDS_P1;SDS_P2;PMS_P1;PMS_P2;Temp;Humidity;BMP_temperature;BMP_pressure;BME280_temperature;BME280_humidity;BME280_pressure;Samples;Min_cycle;Max_cycle;Signal;HPM_P1;HPM_P2
2021/10/06 00:00:14;;;;;;;17.20;6.50;;;;;;;;;;5109419;28;20115;-68
2021/10/06 00:02:40;;;;;;;16.80;6.53;;;;;;;;;;5108435;28;20027;-69
2021/10/06 00:05:07;;;;;;;13.70;5.95;;;;;;;;;;5110415;28;20475;-69
2021/10/06 00:07:33;;;;;;;11.93;6.38;;;;;;;;;;5111265;28;20063;-68
2021/10/06 00:09:59;;;;;;;14.70;6.95;;;;;;;;;;5102820;28;20067;-68
2021/10/06 00:12:25;;;;;;;15.88;6.97;;;;;;;;;;5108513;28;20031;-68
2021/10/06 00:14:51;;;;;;;11.07;6.38;;;;;;;;;;5108835;28;20441;-68
2021/10/06 00:17:17;;;;;;;13.50;7.28;;;;;;;;;;5109443;28;20026;-68
2021/10/06 00:19:43;;;;;;;10.85;6.32;;;;;;;;;;5112465;28;20110;-68
2021/10/06 00:22:08;;;;;;;13.43;6.53;;;;;;;;;;5107758;28;20118;-68
2021/10/06 00:24:35;;;;;;;13.40;7.43;;;;;;;;;;5103438;28;20024;-68
2021/10/06 00:27:00;;;;;;;15.45;6.85;;;;;;;;;;5108392;28;20036;-68
2021/10/06 00:29:26;;;;;;;16.65;6.57;;;;;;;;;;5108932;28;20549;-68
2021/10/06 00:31:52;;;;;;;11.50;6.50;;;;;;;;;;5111134;28;20047;-67
2021/10/06 00:34:20;;;;;;;12.48;6.50;;;;;;;;;;5109601;28;20044;-69
2021/10/06 00:36:46;;;;;;;12.20;6.43;;;;;;;;;;5108259;28;20027;-69
2021/10/06 00:39:12;;;;;;;15.30;6.28;;;;;;;;;;5108746;28;20028;-69
2021/10/06 00:41:38;;;;;;;9.77;6.20;;;;;;;;;;5108347;28;20028;-67
2021/10/06 00:44:04;;;;;;;11.45;5.78;;;;;;;;;;5110843;28;20042;-69
2021/10/06 00:46:30;;;;;;;16.40;6.18;;;;;;;;;;5110005;28;20054;-69
2021/10/06 00:48:56;;;;;;;18.92;5.43;;;;;;;;;;5107870;28;20027;-68
2021/10/06 00:51:22;;;;;;;12.40;6.10;;;;;;;;;;5108500;28;20383;-69
2021/10/06 00:53:48;;;;;;;12.95;6.28;;;;;;;;;;5108202;28;20077;-68
2021/10/06 00:56:15;;;;;;;12.32;6.43;;;;;;;;;;5108935;28;20537;-68
2021/10/06 00:58:41;;;;;;;13.27;6.38;;;;;;;;;;5111372;28;20475;-68
2021/10/06 01:01:07;;;;;;;12.43;6.68;;;;;;;;;;5108526;28;20382;-68
2021/10/06 01:03:33;;;;;;;13.27;6.63;;;;;;;;;;5107843;28;20114;-68
2021/10/06 01:05:59;;;;;;;9.88;6.00;;;;;;;;;;5108146;28;20027;-69
2021/10/06 01:08:25;;;;;;;14.93;6.00;;;;;;;;;;5108486;28;20020;-68
2021/10/06 01:10:52;;;;;;;16.00;6.45;;;;;;;;;;5111260;28;20457;-68
2021/10/06 01:13:18;;;;;;;11.30;5.53;;;;;;;;;;5108608;28;20034;-68
2021/10/06 01:15:44;;;;;;;11.05;5.43;;;;;;;;;;5108414;28;20102;-68
2021/10/06 01:18:10;;;;;;;11.55;5.28;;;;;;;;;;5107611;28;20510;-68
2021/10/06 01:20:37;;;;;;;10.07;5.22;;;;;;;;;;5108395;28;20056;-69
2021/10/06 01:23:03;;;;;;;9.98;5.60;;;;;;;;;;5110587;28;20023;-68
2021/10/06 01:25:28;;;;;;;12.63;6.28;;;;;;;;;;5106748;28;20364;-69
2021/10/06 01:27:54;;;;;;;15.38;6.45;;;;;;;;;;5108691;28;20065;-69
2021/10/06 01:30:20;;;;;;;12.27;6.00;;;;;;;;;;5113845;28;20395;-68
2021/10/06 01:32:47;;;;;;;15.93;6.38;;;;;;;;;;5111841;28;20095;-68
2021/10/06 01:35:15;;;;;;;12.15;5.32;;;;;;;;;;5113085;28;20020;-69
2021/10/06 01:37:41;;;;;;;11.45;5.60;;;;;;;;;;5115100;28;20035;-69
2021/10/06 01:40:09;;;;;;;12.60;5.25;;;;;;;;;;5111645;28;20028;-69
2021/10/06 01:42:35;;;;;;;10.82;5.25;;;;;;;;;;5112179;28;20031;-68
2021/10/06 01:45:01;;;;;;;9.75;5.00;;;;;;;;;;5111991;28;20038;-69
2021/10/06 01:47:27;;;;;;;11.70;5.07;;;;;;;;;;5111293;28;20046;-69
2021/10/06 01:49:54;;;;;;;9.95;4.40;;;;;;;;;;5114343;28;20023;-68
2021/10/06 01:52:21;;;;;;;9.98;5.10;;;;;;;;;;5114336;28;20028;-68
2021/10/06 01:54:47;;;;;;;10.82;4.93;;;;;;;;;;5112089;28;20081;-68
2021/10/06 01:57:13;;;;;;;9.98;5.30;;;;;;;;;;5111287;28;20027;-68
2021/10/06 01:59:44;;;;;;;12.40;5.07;;;;;;;;;;5111347;28;20016;-68
2021/10/06 02:02:10;;;;;;;11.93;5.80;;;;;;;;;;5112965;28;20059;-68
2021/10/06 02:04:36;;;;;;;10.65;5.45;;;;;;;;;;5114121;28;20067;-68
2021/10/06 02:07:02;;;;;;;15.63;5.78;;;;;;;;;;5110473;28;20130;-68
2021/10/06 02:09:28;;;;;;;13.00;5.45;;;;;;;;;;5111324;28;20034;-68
2021/10/06 02:11:54;;;;;;;15.40;5.30;;;;;;;;;;5111239;28;20031;-68
2021/10/06 02:14:21;;;;;;;15.27;5.70;;;;;;;;;;5111718;28;20458;-68
2021/10/06 02:16:47;;;;;;;12.35;6.00;;;;;;;;;;5114535;28;20028;-68
2021/10/06 02:19:13;;;;;;;13.70;5.38;;;;;;;;;;5111375;28;20034;-68
2021/10/06 02:21:39;;;;;;;11.68;4.95;;;;;;;;;;5105559;28;20023;-68
2021/10/06 02:24:05;;;;;;;12.18;4.53;;;;;;;;;;5111365;28;20028;-68
2021/10/06 02:26:32;;;;;;;12.88;4.70;;;;;;;;;;5111130;28;20176;-68
2021/10/06 02:28:58;;;;;;;9.52;4.40;;;;;;;;;;5113517;28;20764;-68
2021/10/06 02:31:24;;;;;;;7.28;3.30;;;;;;;;;;5111549;28;20058;-68
2021/10/06 02:33:50;;;;;;;10.23;3.28;;;;;;;;;;5111387;28;20733;-68
2021/10/06 02:36:16;;;;;;;10.00;3.35;;;;;;;;;;5110522;28;20023;-68
2021/10/06 02:38:42;;;;;;;8.43;3.20;;;;;;;;;;5110586;28;20038;-68
2021/10/06 02:41:08;;;;;;;11.38;3.67;;;;;;;;;;5112599;28;20110;-68
2021/10/06 02:43:34;;;;;;;12.52;3.70;;;;;;;;;;5113102;28;20679;-68
2021/10/06 02:46:00;;;;;;;7.22;3.50;;;;;;;;;;5109831;28;20126;-68
2021/10/06 02:48:26;;;;;;;7.50;3.38;;;;;;;;;;5110797;28;20039;-68
2021/10/06 02:50:52;;;;;;;7.30;3.63;;;;;;;;;;5110402;28;20027;-68
2021/10/06 02:53:18;;;;;;;10.07;3.80;;;;;;;;;;5111274;28;20036;-68
2021/10/06 02:55:44;;;;;;;7.82;3.67;;;;;;;;;;5109721;28;20069;-68
2021/10/06 02:58:10;;;;;;;16.58;4.90;;;;;;;;;;5109870;28;20055;-69
2021/10/06 03:00:36;;;;;;;10.73;4.30;;;;;;;;;;5110577;28;20027;-68
2021/10/06 03:03:02;;;;;;;11.73;4.53;;;;;;;;;;5110625;28;20024;-68
2021/10/06 03:05:28;;;;;;;18.38;5.28;;;;;;;;;;5110825;28;20059;-68
2021/10/06 03:07:54;;;;;;;10.95;4.30;;;;;;;;;;5111225;28;20135;-68
2021/10/06 03:10:20;;;;;;;13.43;5.25;;;;;;;;;;5112825;28;20051;-69
2021/10/06 03:12:46;;;;;;;15.27;5.82;;;;;;;;;;5110002;28;20028;-69
2021/10/06 03:15:12;;;;;;;13.88;4.88;;;;;;;;;;5110067;28;20039;-69
2021/10/06 03:17:38;;;;;;;11.98;4.60;;;;;;;;;;5111843;28;20024;-69
2021/10/06 03:20:05;;;;;;;11.82;4.90;;;;;;;;;;5111832;28;20027;-68
2021/10/06 03:22:31;;;;;;;9.10;5.20;;;;;;;;;;5111580;28;20023;-68
2021/10/06 03:24:57;;;;;;;12.38;4.90;;;;;;;;;;5109580;28;20390;-69
2021/10/06 03:27:23;;;;;;;13.80;4.95;;;;;;;;;;5110046;28;20027;-68
2021/10/06 03:29:49;;;;;;;11.38;4.70;;;;;;;;;;5108861;28;20120;-69
2021/10/06 03:32:16;;;;;;;10.48;4.93;;;;;;;;;;5110029;28;20079;-69
2021/10/06 03:34:42;;;;;;;14.00;5.07;;;;;;;;;;5113001;28;20015;-69
2021/10/06 03:37:08;;;;;;;11.80;4.40;;;;;;;;;;5108891;28;20502;-69
2021/10/06 03:39:34;;;;;;;13.32;4.85;;;;;;;;;;5109344;28;20543;-68
2021/10/06 03:42:00;;;;;;;12.77;4.70;;;;;;;;;;5109291;28;20034;-68
2021/10/06 03:44:26;;;;;;;9.70;4.82;;;;;;;;;;5109447;28;20111;-68
2021/10/06 03:46:52;;;;;;;11.23;5.18;;;;;;;;;;5112381;28;20144;-68
2021/10/06 03:49:18;;;;;;;11.45;4.50;;;;;;;;;;5109801;28;20057;-69
2021/10/06 03:51:44;;;;;;;7.20;4.35;;;;;;;;;;5109666;28;20054;-68
2021/10/06 03:54:10;;;;;;;8.52;3.88;;;;;;;;;;5109336;28;20028;-69
2021/10/06 03:56:36;;;;;;;11.77;4.78;;;;;;;;;;5110390;28;20023;-70
2021/10/06 03:59:02;;;;;;;12.30;4.50;;;;;;;;;;5111688;28;20095;-69
2021/10/06 04:01:29;;;;;;;8.30;4.32;;;;;;;;;;5110456;28;20055;-68
2021/10/06 04:03:55;;;;;;;10.73;4.22;;;;;;;;;;5108396;28;20030;-68
2021/10/06 04:06:21;;;;;;;16.13;4.97;;;;;;;;;;5109256;28;20037;-68
2021/10/06 04:08:47;;;;;;;8.60;4.40;;;;;;;;;;5104415;28;20357;-68
2021/10/06 04:11:13;;;;;;;8.13;4.15;;;;;;;;;;5109541;28;20062;-68
2021/10/06 04:13:39;;;;;;;368.60;12.25;;;;;;;;;;5111759;28;20055;-68
2021/10/06 04:16:05;;;;;;;439.70;15.45;;;;;;;;;;5105673;28;20032;-68
2021/10/06 04:18:31;;;;;;;17.48;5.63;;;;;;;;;;5107542;28;20031;-68
2021/10/06 04:20:57;;;;;;;10.00;4.95;;;;;;;;;;5098629;28;20036;-68
2021/10/06 04:23:23;;;;;;;31.73;7.43;;;;;;;;;;5109146;28;20379;-68
2021/10/06 04:25:49;;;;;;;12.48;5.32;;;;;;;;;;5103974;28;20032;-68
2021/10/06 04:28:15;;;;;;;13.90;4.50;;;;;;;;;;5108022;28;20164;-68
2021/10/06 04:30:41;;;;;;;11.77;4.63;;;;;;;;;;5102340;28;20400;-68
2021/10/06 04:33:07;;;;;;;9.43;4.50;;;;;;;;;;5108894;28;20027;-68
2021/10/06 04:35:33;;;;;;;10.18;5.10;;;;;;;;;;5108633;28;20016;-68
2021/10/06 04:37:59;;;;;;;12.20;4.97;;;;;;;;;;5110496;28;20024;-68
2021/10/06 04:40:24;;;;;;;10.18;4.95;;;;;;;;;;5111453;28;20128;-68
2021/10/06 04:42:51;;;;;;;8.80;3.67;;;;;;;;;;5108351;28;20032;-67
2021/10/06 04:45:17;;;;;;;9.10;4.38;;;;;;;;;;5108309;28;20493;-68
2021/10/06 04:47:43;;;;;;;12.43;5.05;;;;;;;;;;5108423;28;20118;-68
2021/10/06 04:50:09;;;;;;;9.88;4.25;;;;;;;;;;5109985;28;20074;-68
2021/10/06 04:52:35;;;;;;;8.73;4.30;;;;;;;;;;5110148;28;20059;-68
2021/10/06 04:55:01;;;;;;;15.77;5.20;;;;;;;;;;5108350;28;20047;-68
2021/10/06 04:57:27;;;;;;;10.55;5.00;;;;;;;;;;5108570;28;20055;-68
2021/10/06 04:59:53;;;;;;;8.32;3.63;;;;;;;;;;5107024;28;20032;-68
2021/10/06 05:02:19;;;;;;;8.38;2.47;;;;;;;;;;5107190;28;20107;-69
2021/10/06 05:04:45;;;;;;;126.03;8.68;;;;;;;;;;5111725;28;20111;-69
2021/10/06 05:07:11;;;;;;;7.40;4.10;;;;;;;;;;5108214;28;20039;-68
2021/10/06 05:09:37;;;;;;;9.00;2.60;;;;;;;;;;5107925;28;20024;-69
2021/10/06 05:12:04;;;;;;;8.38;1.40;;;;;;;;;;5108259;28;20047;-68
2021/10/06 05:14:30;;;;;;;4.10;1.10;;;;;;;;;;5108007;28;20137;-69
2021/10/06 05:16:56;;;;;;;6.50;2.70;;;;;;;;;;5110285;28;20028;-68
2021/10/06 05:19:22;;;;;;;3.65;1.88;;;;;;;;;;5109799;28;20016;-68
2021/10/06 05:21:48;;;;;;;6.68;1.65;;;;;;;;;;5108393;28;20020;-69
2021/10/06 05:24:14;;;;;;;6.15;1.85;;;;;;;;;;5107164;28;20494;-69
2021/10/06 05:26:40;;;;;;;5.07;1.30;;;;;;;;;;5107825;28;20039;-68
2021/10/06 05:29:06;;;;;;;5.55;1.50;;;;;;;;;;5110390;28;20430;-69
2021/10/06 05:31:32;;;;;;;4.18;1.30;;;;;;;;;;5110143;28;20075;-69
2021/10/06 05:33:58;;;;;;;4.10;1.27;;;;;;;;;;5108558;28;20052;-67
2021/10/06 05:36:24;;;;;;;3.03;0.77;;;;;;;;;;5108018;28;20065;-69
2021/10/06 05:38:51;;;;;;;3.33;1.00;;;;;;;;;;5108369;28;20062;-69
2021/10/06 05:41:17;;;;;;;5.80;1.05;;;;;;;;;;5092221;28;20136;-69
2021/10/06 05:43:43;;;;;;;1.92;0.70;;;;;;;;;;5111405;28;20027;-68
2021/10/06 05:46:09;;;;;;;5.75;0.73;;;;;;;;;;5108179;28;20027;-68
2021/10/06 05:48:35;;;;;;;2.80;0.80;;;;;;;;;;5108406;28;20483;-68
2021/10/06 05:51:01;;;;;;;3.92;0.70;;;;;;;;;;5108033;28;20023;-68
2021/10/06 05:53:28;;;;;;;6.43;0.80;;;;;;;;;;5106849;28;20036;-69
2021/10/06 05:55:54;;;;;;;2.63;0.60;;;;;;;;;;5111255;28;20020;-67
2021/10/06 05:58:20;;;;;;;2.35;0.80;;;;;;;;;;5109198;28;20451;-69
2021/10/06 06:00:46;;;;;;;2.97;0.63;;;;;;;;;;5108002;28;20032;-67
2021/10/06 06:03:12;;;;;;;5.03;0.70;;;;;;;;;;5107620;28;20114;-69
2021/10/06 06:05:41;;;;;;;4.82;0.80;;;;;;;;;;5108069;28;20160;-69
2021/10/06 06:08:08;;;;;;;6.95;0.80;;;;;;;;;;5109680;28;20042;-68
2021/10/06 06:10:34;;;;;;;4.53;0.73;;;;;;;;;;5108736;28;20027;-68
2021/10/06 06:13:00;;;;;;;4.68;0.70;;;;;;;;;;5108730;28;20026;-68
2021/10/06 06:15:26;;;;;;;1.80;0.70;;;;;;;;;;5103620;28;20352;-68
2021/10/06 06:17:52;;;;;;;7.80;1.00;;;;;;;;;;5110383;28;20046;-68
2021/10/06 06:20:24;;;;;;;2.70;0.88;;;;;;;;;;5111834;28;20033;-68
2021/10/06 06:22:53;;;;;;;4.95;1.02;;;;;;;;;;5110864;28;20046;-68
2021/10/06 06:25:20;;;;;;;3.85;0.80;;;;;;;;;;5112432;28;20024;-68
2021/10/06 06:27:46;;;;;;;3.00;0.70;;;;;;;;;;5111488;28;20035;-68
2021/10/06 06:30:12;;;;;;;1.90;0.80;;;;;;;;;;5111185;28;20027;-70
2021/10/06 06:32:38;;;;;;;3.63;0.82;;;;;;;;;;5111365;28;20055;-70
2021/10/06 06:35:05;;;;;;;1.05;0.70;;;;;;;;;;5113937;28;20019;-70
2021/10/06 06:37:31;;;;;;;2.97;0.70;;;;;;;;;;5112256;28;20020;-70
2021/10/06 06:39:57;;;;;;;7.93;0.73;;;;;;;;;;5111319;28;20031;-69
2021/10/06 06:42:23;;;;;;;3.05;0.90;;;;;;;;;;5111406;28;20107;-69
2021/10/06 06:44:49;;;;;;;5.88;1.42;;;;;;;;;;5111015;28;20544;-68
2021/10/06 06:47:15;;;;;;;5.88;1.70;;;;;;;;;;5111923;28;22648;-68
2021/10/06 06:49:41;;;;;;;11.63;2.67;;;;;;;;;;5113667;28;20537;-68
2021/10/06 06:52:07;;;;;;;9.45;2.65;;;;;;;;;;5110959;28;20077;-68
2021/10/06 06:54:33;;;;;;;9.63;2.35;;;;;;;;;;5111256;28;20425;-63
2021/10/06 06:56:59;;;;;;;3.47;1.20;;;;;;;;;;5111130;28;20039;-63
2021/10/06 06:59:25;;;;;;;5.38;1.27;;;;;;;;;;5110178;28;20069;-63
2021/10/06 07:01:53;;;;;;;3.53;1.60;;;;;;;;;;5114181;28;20028;-63
2021/10/06 07:04:19;;;;;;;5.95;1.85;;;;;;;;;;5111970;28;20447;-63
2021/10/06 07:06:45;;;;;;;3.92;1.20;;;;;;;;;;5110746;28;20180;-63
2021/10/06 07:09:11;;;;;;;15.30;2.40;;;;;;;;;;5111045;28;21537;-63
2021/10/06 07:11:37;;;;;;;7.43;1.83;;;;;;;;;;5110546;28;20042;-65
2021/10/06 07:14:03;;;;;;;5.78;1.88;;;;;;;;;;5112716;28;20547;-64
2021/10/06 07:16:29;;;;;;;4.50;1.70;;;;;;;;;;5112030;28;20018;-64
2021/10/06 07:18:55;;;;;;;8.82;1.85;;;;;;;;;;5110270;28;20039;-65
2021/10/06 07:21:21;;;;;;;7.60;1.60;;;;;;;;;;5110430;28;20030;-64
2021/10/06 07:23:47;;;;;;;6.22;1.60;;;;;;;;;;5109621;28;20031;-64
2021/10/06 07:26:13;;;;;;;6.50;1.70;;;;;;;;;;5111143;28;20065;-64
2021/10/06 07:28:39;;;;;;;4.82;1.60;;;;;;;;;;5113017;28;20383;-64
2021/10/06 07:31:05;;;;;;;17.88;2.88;;;;;;;;;;5110199;28;20062;-64
2021/10/06 07:33:31;;;;;;;2.97;1.30;;;;;;;;;;5110176;28;20031;-64
2021/10/06 07:35:57;;;;;;;10.48;4.75;;;;;;;;;;5109923;28;20047;-64
2021/10/06 07:38:23;;;;;;;8.88;4.28;;;;;;;;;;5110457;28;20469;-64
2021/10/06 07:40:49;;;;;;;10.63;4.57;;;;;;;;;;5113064;28;20031;-64
2021/10/06 07:43:15;;;;;;;6.78;3.20;;;;;;;;;;5111005;28;20030;-64
2021/10/06 07:45:44;;;;;;;6.55;2.30;;;;;;;;;;5109709;28;20020;-64
2021/10/06 07:48:10;;;;;;;5.53;1.90;;;;;;;;;;5109990;28;20063;-65
2021/10/06 07:50:36;;;;;;;6.20;2.30;;;;;;;;;;5109690;28;20051;-64
2021/10/06 07:53:02;;;;;;;3.95;2.53;;;;;;;;;;5112592;28;20082;-64
2021/10/06 07:55:28;;;;;;;5.50;1.35;;;;;;;;;;5110325;28;20484;-64
2021/10/06 07:57:56;;;;;;;13.88;2.08;;;;;;;;;;5109497;28;20042;-64
2021/10/06 08:00:22;;;;;;;5.95;1.30;;;;;;;;;;5110010;28;20064;-64
2021/10/06 08:02:48;;;;;;;5.93;1.23;;;;;;;;;;5109571;28;20106;-63
2021/10/06 08:05:14;;;;;;;4.88;1.33;;;;;;;;;;5109976;28;20020;-64
2021/10/06 08:07:40;;;;;;;7.30;1.73;;;;;;;;;;5112305;28;20035;-64
2021/10/06 08:10:06;;;;;;;4.38;1.20;;;;;;;;;;5109628;28;20047;-64
2021/10/06 08:12:32;;;;;;;3.53;1.00;;;;;;;;;;5109517;28;20035;-63
2021/10/06 08:14:58;;;;;;;4.97;1.30;;;;;;;;;;5109669;28;20023;-64
2021/10/06 08:17:24;;;;;;;5.07;1.20;;;;;;;;;;5109486;28;20028;-63
2021/10/06 08:19:50;;;;;;;3.13;1.00;;;;;;;;;;5111904;28;20423;-63
2021/10/06 08:22:17;;;;;;;1.98;1.00;;;;;;;;;;5109714;28;20034;-63
2021/10/06 08:24:43;;;;;;;2.90;0.88;;;;;;;;;;5109387;28;20019;-63
2021/10/06 08:27:11;;;;;;;2.25;0.52;;;;;;;;;;5109299;28;20547;-63
2021/10/06 08:29:37;;;;;;;1.17;0.32;;;;;;;;;;5109141;28;20108;-63
2021/10/06 08:32:04;;;;;;;1.02;0.32;;;;;;;;;;5111053;28;20116;-63
2021/10/06 08:34:30;;;;;;;0.52;0.20;;;;;;;;;;5109524;28;20490;-63
2021/10/06 08:36:56;;;;;;;3.20;0.30;;;;;;;;;;5108512;28;20071;-63
2021/10/06 08:39:22;;;;;;;1.95;0.28;;;;;;;;;;5109187;28;20049;-63
2021/10/06 08:41:48;;;;;;;0.25;0.08;;;;;;;;;;5108975;28;20495;-63
2021/10/06 08:44:14;;;;;;;0.63;0.20;;;;;;;;;;5109862;28;20020;-63
2021/10/06 08:46:40;;;;;;;2.83;0.43;;;;;;;;;;5111767;28;20020;-63
2021/10/06 08:49:06;;;;;;;3.53;0.22;;;;;;;;;;5108837;28;20093;-62
2021/10/06 08:51:32;;;;;;;1.42;0.32;;;;;;;;;;5108964;28;20360;-63
2021/10/06 08:53:58;;;;;;;0.77;0.30;;;;;;;;;;5108623;28;20069;-63
2021/10/06 08:56:27;;;;;;;1.40;0.20;;;;;;;;;;5108991;28;20074;-63
2021/10/06 08:58:53;;;;;;;0.85;0.10;;;;;;;;;;5111864;28;20016;-63
2021/10/06 09:01:23;;;;;;;2.53;0.25;;;;;;;;;;5108923;28;20062;-63
2021/10/06 09:03:56;;;;;;;0.40;0.20;;;;;;;;;;5108806;28;20031;-63
2021/10/06 09:06:30;;;;;;;0.17;0.10;;;;;;;;;;5108482;28;20027;-63
2021/10/06 09:08:56;;;;;;;0.60;0.20;;;;;;;;;;5108352;28;20023;-63
2021/10/06 09:11:24;;;;;;;0.35;0.28;;;;;;;;;;5108897;28;20026;-64
2021/10/06 09:13:50;;;;;;;0.17;0.10;;;;;;;;;;5112122;28;20051;-63
2021/10/06 09:16:20;;;;;;;0.85;0.17;;;;;;;;;;5108341;28;20096;-63
2021/10/06 09:18:46;;;;;;;0.85;0.32;;;;;;;;;;5108910;28;20057;-63
2021/10/06 09:21:12;;;;;;;0.55;0.22;;;;;;;;;;5108374;28;20487;-63
2021/10/06 09:23:40;;;;;;;0.68;0.10;;;;;;;;;;5108577;28;20024;-63
2021/10/06 09:26:07;;;;;;;1.95;0.10;;;;;;;;;;5110730;28;20034;-63
2021/10/06 09:28:37;;;;;;;0.50;0.10;;;;;;;;;;5110505;28;20047;-63
2021/10/06 09:31:08;;;;;;;1.08;0.30;;;;;;;;;;5107976;28;20051;-63
2021/10/06 09:33:50;;;;;;;0.30;0.20;;;;;;;;;;5107920;28;20534;-63
2021/10/06 09:36:20;;;;;;;0.17;0.13;;;;;;;;;;5108556;28;20035;-63
2021/10/06 09:38:52;;;;;;;0.35;0.15;;;;;;;;;;5108332;28;20039;-63
2021/10/06 09:41:34;;;;;;;0.10;0.10;;;;;;;;;;5092590;28;20417;-63
2021/10/06 09:44:02;;;;;;;1.00;0.20;;;;;;;;;;5108177;28;20016;-63
2021/10/06 09:46:40;;;;;;;0.55;0.13;;;;;;;;;;5110948;28;20479;-63
2021/10/06 09:49:16;;;;;;;0.10;0.10;;;;;;;;;;5111814;28;20038;-63
2021/10/06 09:51:42;;;;;;;0.35;0.35;;;;;;;;;;5112518;28;20031;-63
2021/10/06 09:54:08;;;;;;;0.15;0.10;;;;;;;;;;5111735;28;20019;-63
2021/10/06 09:56:41;;;;;;;2.85;0.20;;;;;;;;;;5111918;28;20058;-63
2021/10/06 09:59:08;;;;;;;0.20;0.08;;;;;;;;;;5113606;28;20127;-64
2021/10/06 10:01:37;;;;;;;1.45;0.30;;;;;;;;;;5114288;28;20024;-64
2021/10/06 10:04:05;;;;;;;0.35;0.03;;;;;;;;;;5111924;28;20487;-64
2021/10/06 10:06:31;;;;;;;0.95;0.40;;;;;;;;;;5112077;28;20034;-63
2021/10/06 10:08:57;;;;;;;0.30;0.10;;;;;;;;;;5112029;28;20497;-64
2021/10/06 10:11:23;;;;;;;0.10;0.10;;;;;;;;;;5111553;28;20031;-64
2021/10/06 10:13:49;;;;;;;1.00;0.10;;;;;;;;;;5114906;28;20023;-64
2021/10/06 10:16:15;;;;;;;1.95;0.40;;;;;;;;;;5112477;28;20068;-64
2021/10/06 10:18:42;;;;;;;0.63;0.20;;;;;;;;;;5111454;28;20058;-64
2021/10/06 10:21:09;;;;;;;0.65;0.10;;;;;;;;;;5110890;28;20386;-64
2021/10/06 10:23:36;;;;;;;2.05;0.30;;;;;;;;;;5111885;28;20081;-64
2021/10/06 10:26:02;;;;;;;1.65;0.28;;;;;;;;;;5114219;27;20102;-64
2021/10/06 10:28:38;;;;;;;0.47;0.35;;;;;;;;;;5104638;28;20479;-64
2021/10/06 10:31:04;;;;;;;0.43;0.20;;;;;;;;;;5104953;28;20036;-64
2021/10/06 10:33:39;;;;;;;1.60;0.20;;;;;;;;;;5103861;28;20035;-64
2021/10/06 10:36:05;;;;;;;0.65;0.15;;;;;;;;;;5105100;28;20030;-63
2021/10/06 10:38:38;;;;;;;1.10;0.20;;;;;;;;;;5104737;28;20031;-63
2021/10/06 10:41:04;;;;;;;4.28;0.30;;;;;;;;;;5106116;28;20023;-65
2021/10/06 10:43:32;;;;;;;0.20;0.10;;;;;;;;;;5104657;28;20024;-64
2021/10/06 10:46:01;;;;;;;0.10;0.10;;;;;;;;;;5103554;28;20028;-63
2021/10/06 10:48:28;;;;;;;0.10;0.10;;;;;;;;;;5104448;28;20043;-65
2021/10/06 10:50:54;;;;;;;0.43;0.20;;;;;;;;;;5104559;28;20043;-64
2021/10/06 10:53:21;;;;;;;0.45;0.10;;;;;;;;;;5105287;28;20395;-64
2021/10/06 10:55:47;;;;;;;0.30;0.10;;;;;;;;;;5104136;28;20515;-64
2021/10/06 10:58:29;;;;;;;0.10;0.10;;;;;;;;;;5102778;28;20051;-65
2021/10/06 11:00:59;;;;;;;0.57;0.15;;;;;;;;;;5108162;28;20055;-62
2021/10/06 11:03:26;;;;;;;1.67;0.10;;;;;;;;;;5111017;28;20024;-62
2021/10/06 11:05:53;;;;;;;1.05;0.10;;;;;;;;;;5110668;28;20038;-63
2021/10/06 11:08:33;;;;;;;1.65;0.30;;;;;;;;;;5096106;28;20034;-63
2021/10/06 11:11:11;;;;;;;0.30;0.10;;;;;;;;;;5089852;28;20120;-63
2021/10/06 11:13:38;;;;;;;0.80;0.20;;;;;;;;;;5103949;28;20011;-63
2021/10/06 11:16:04;;;;;;;0.98;0.20;;;;;;;;;;5100970;28;20027;-64
2021/10/06 11:18:44;;;;;;;0.10;0.05;;;;;;;;;;5104562;28;20031;-63
2021/10/06 11:21:11;;;;;;;0.77;0.20;;;;;;;;;;5101889;28;20056;-63
2021/10/06 11:23:37;;;;;;;2.53;0.22;;;;;;;;;;5106590;28;20020;-63
2021/10/06 11:26:11;;;;;;;1.58;0.15;;;;;;;;;;5108597;28;20069;-63
2021/10/06 11:28:38;;;;;;;1.40;0.20;;;;;;;;;;5092424;28;20074;-63
2021/10/06 11:31:05;;;;;;;0.20;0.20;;;;;;;;;;5095697;28;20098;-63
2021/10/06 11:33:31;;;;;;;0.52;0.15;;;;;;;;;;5100323;28;20028;-63
2021/10/06 11:36:06;;;;;;;0.20;0.20;;;;;;;;;;5098021;28;20031;-63
2021/10/06 11:38:32;;;;;;;0.22;0.10;;;;;;;;;;5094943;28;20056;-63
2021/10/06 11:40:58;;;;;;;3.60;0.28;;;;;;;;;;5109579;28;20403;-63
2021/10/06 11:43:24;;;;;;;0.10;0.10;;;;;;;;;;5101055;28;20062;-63
2021/10/06 11:45:50;;;;;;;0.35;0.20;;;;;;;;;;5100253;28;20100;-63
2021/10/06 11:48:16;;;;;;;1.27;0.20;;;;;;;;;;5098835;28;20483;-64
2021/10/06 11:50:46;;;;;;;0.95;0.20;;;;;;;;;;5104169;28;20421;-63
2021/10/06 11:53:12;;;;;;;0.28;0.20;;;;;;;;;;5100344;27;20059;-63
2021/10/06 11:55:47;;;;;;;3.60;0.22;;;;;;;;;;5110800;28;20055;-65
2021/10/06 11:58:31;;;;;;;0.20;0.20;;;;;;;;;;5109113;28;20028;-63
2021/10/06 12:01:08;;;;;;;3.08;0.30;;;;;;;;;;5109751;28;20019;-68
2021/10/06 12:03:38;;;;;;;0.20;0.10;;;;;;;;;;5103775;28;20133;-64
2021/10/06 12:06:04;;;;;;;3.67;0.60;;;;;;;;;;5108274;28;20050;-64
2021/10/06 12:08:30;;;;;;;2.08;0.40;;;;;;;;;;5094883;28;20032;-63
2021/10/06 12:10:57;;;;;;;0.35;0.20;;;;;;;;;;5111905;28;20161;-64
2021/10/06 12:13:35;;;;;;;0.28;0.10;;;;;;;;;;5110370;28;20022;-67
2021/10/06 12:16:01;;;;;;;0.10;0.10;;;;;;;;;;5108737;28;20023;-63
2021/10/06 12:18:27;;;;;;;1.27;0.43;;;;;;;;;;5104002;28;20026;-66
2021/10/06 12:20:53;;;;;;;0.15;0.15;;;;;;;;;;5109068;28;20028;-65
2021/10/06 12:23:24;;;;;;;0.90;0.20;;;;;;;;;;5108788;28;20484;-64
2021/10/06 12:25:54;;;;;;;0.93;0.30;;;;;;;;;;5108351;28;20099;-64
2021/10/06 12:28:21;;;;;;;0.22;0.20;;;;;;;;;;5109249;28;20067;-65
2021/10/06 12:30:56;;;;;;;0.65;0.30;;;;;;;;;;5100877;28;20052;-66
2021/10/06 12:33:26;;;;;;;0.85;0.20;;;;;;;;;;5101975;28;20118;-65
2021/10/06 12:35:54;;;;;;;1.02;0.30;;;;;;;;;;5100983;28;20031;-65
2021/10/06 12:38:20;;;;;;;0.68;0.20;;;;;;;;;;5108183;28;20106;-65
2021/10/06 12:40:51;;;;;;;0.35;0.20;;;;;;;;;;5110558;28;20016;-65
2021/10/06 12:43:17;;;;;;;0.90;0.35;;;;;;;;;;5110623;28;20027;-64
2021/10/06 12:45:58;;;;;;;1.30;0.17;;;;;;;;;;5108834;28;20024;-65
2021/10/06 12:48:33;;;;;;;0.13;0.10;;;;;;;;;;5107859;28;20077;-65
2021/10/06 12:50:59;;;;;;;0.55;0.20;;;;;;;;;;5108468;28;20034;-65
2021/10/06 12:53:27;;;;;;;1.20;0.20;;;;;;;;;;5101693;28;20043;-65
2021/10/06 12:55:53;;;;;;;3.22;0.30;;;;;;;;;;5111285;28;20024;-65
2021/10/06 12:58:19;;;;;;;0.30;0.20;;;;;;;;;;5098239;28;20030;-65
2021/10/06 13:00:45;;;;;;;0.30;0.10;;;;;;;;;;5109339;28;20079;-65
2021/10/06 13:03:11;;;;;;;2.78;0.38;;;;;;;;;;5108496;28;20034;-66
2021/10/06 13:05:40;;;;;;;2.10;0.20;;;;;;;;;;5108739;28;20024;-67
2021/10/06 13:08:16;;;;;;;0.98;0.25;;;;;;;;;;5108898;28;20038;-67
2021/10/06 13:10:42;;;;;;;0.80;0.25;;;;;;;;;;5111199;28;20557;-67
2021/10/06 13:13:08;;;;;;;0.32;0.30;;;;;;;;;;5108630;28;20035;-66
2021/10/06 13:15:35;;;;;;;11.00;0.50;;;;;;;;;;5108392;28;20422;-66
2021/10/06 13:18:01;;;;;;;0.28;0.20;;;;;;;;;;5098239;28;20031;-67
2021/10/06 13:20:27;;;;;;;0.77;0.20;;;;;;;;;;5108077;28;20032;-67
2021/10/06 13:22:53;;;;;;;1.42;0.40;;;;;;;;;;5115637;28;20027;-66
2021/10/06 13:25:19;;;;;;;1.67;0.20;;;;;;;;;;5113014;28;20030;-67
2021/10/06 13:27:45;;;;;;;1.20;0.25;;;;;;;;;;5112386;28;20054;-67
2021/10/06 13:30:14;;;;;;;1.15;0.20;;;;;;;;;;5106566;28;20031;-67
2021/10/06 13:32:40;;;;;;;1.02;0.30;;;;;;;;;;5112924;28;20552;-67
2021/10/06 13:35:06;;;;;;;1.55;0.20;;;;;;;;;;5114440;28;20102;-67
2021/10/06 13:37:32;;;;;;;2.60;0.40;;;;;;;;;;5112630;28;20397;-66
2021/10/06 13:39:59;;;;;;;1.05;0.28;;;;;;;;;;5112147;28;20102;-66
2021/10/06 13:42:26;;;;;;;0.30;0.20;;;;;;;;;;5112630;28;20099;-67
2021/10/06 13:44:52;;;;;;;1.55;0.45;;;;;;;;;;5112125;28;20084;-66
2021/10/06 13:47:18;;;;;;;0.70;0.30;;;;;;;;;;5096500;28;20505;-66
2021/10/06 13:49:44;;;;;;;0.30;0.25;;;;;;;;;;5115913;28;20015;-65
2021/10/06 13:52:10;;;;;;;1.92;0.50;;;;;;;;;;5111357;28;20394;-66
2021/10/06 13:54:36;;;;;;;1.20;0.50;;;;;;;;;;5111895;28;20024;-66
2021/10/06 13:57:02;;;;;;;0.70;0.30;;;;;;;;;;5112333;28;20024;-65
2021/10/06 13:59:28;;;;;;;1.88;0.22;;;;;;;;;;5112145;28;20022;-66
2021/10/06 14:01:54;;;;;;;2.10;0.30;;;;;;;;;;5115032;28;20390;-66
2021/10/06 14:04:21;;;;;;;0.15;0.10;;;;;;;;;;5112492;28;20018;-66
2021/10/06 14:06:47;;;;;;;2.85;0.30;;;;;;;;;;5111917;28;20031;-66
2021/10/06 14:09:13;;;;;;;0.40;0.32;;;;;;;;;;5111773;28;20028;-66
2021/10/06 14:11:39;;;;;;;0.57;0.20;;;;;;;;;;5111576;28;20058;-66
2021/10/06 14:14:05;;;;;;;1.33;0.20;;;;;;;;;;5114168;28;20486;-66
2021/10/06 14:16:31;;;;;;;0.10;0.10;;;;;;;;;;5113063;28;20028;-66
2021/10/06 14:18:57;;;;;;;0.93;0.30;;;;;;;;;;5111832;28;20030;-66
2021/10/06 14:21:23;;;;;;;0.20;0.00;;;;;;;;;;5111118;28;20031;-66
2021/10/06 14:23:49;;;;;;;0.52;0.10;;;;;;;;;;5111602;28;20023;-66
2021/10/06 14:26:15;;;;;;;0.20;0.20;;;;;;;;;;5112465;28;20452;-66
2021/10/06 14:28:41;;;;;;;0.65;0.20;;;;;;;;;;5113849;28;20034;-66
2021/10/06 14:31:07;;;;;;;1.23;0.20;;;;;;;;;;5111367;28;20043;-65
2021/10/06 14:33:33;;;;;;;1.17;0.50;;;;;;;;;;5110555;28;20076;-65
2021/10/06 14:35:59;;;;;;;2.58;0.57;;;;;;;;;;5104938;28;20034;-66